sensor_id;sensor_type;location;lat;lon;timestamp;temperature;humidity
55693;DHT22;41590;53.366;5.212;2022-09-09T00:04:35;15.90;99.90
55693;DHT22;41590;53.366;5.212;2022-09-09T00:07:16;15.90;99.90
55693;DHT22;41590;53.366;5.212;2022-09-09T00:10:00;15.90;99.90
55693;DHT22;41590;53.366;5.212;2022-09-09T00:15:14;15.90;99.90
55693;DHT22;41590;53.366;5.212;2022-09-09T00:17:56;15.90;99.90
55693;DHT22;41590;53.366;5.212;2022-09-09T00:20:38;15.90;99.90
55693;DHT22;41590;53.366;5.212;2022-09-09T00:23:29;16.00;99.90
55693;DHT22;41590;53.366;5.212;2022-09-09T00:31:49;15.90;99.90
55693;DHT22;41590;53.366;5.212;2022-09-09T00:34:23;15.90;99.90
55693;DHT22;41590;53.366;5.212;2022-09-09T00:36:52;15.90;99.90
55693;DHT22;41590;53.366;5.212;2022-09-09T00:39:46;15.80;99.90
55693;DHT22;41590;53.366;5.212;2022-09-09T00:47:49;15.70;99.90
55693;DHT22;41590;53.366;5.212;2022-09-09T00:50:39;15.70;99.90
55693;DHT22;41590;53.366;5.212;2022-09-09T00:53:12;15.70;99.90
55693;DHT22;41590;53.366;5.212;2022-09-09T00:56:21;15.60;99.90
55693;DHT22;41590;53.366;5.212;2022-09-09T01:01:58;15.50;99.90
55693;DHT22;41590;53.366;5.212;2022-09-09T01:04:33;15.40;99.90
55693;DHT22;41590;53.366;5.212;2022-09-09T01:07:16;15.30;99.90
55693;DHT22;41590;53.366;5.212;2022-09-09T01:09:55;15.30;99.90
55693;DHT22;41590;53.366;5.212;2022-09-09T01:12:49;15.30;99.90
55693;DHT22;41590;53.366;5.212;2022-09-09T01:15:25;15.30;99.90
55693;DHT22;41590;53.366;5.212;2022-09-09T01:18:04;15.30;99.90
55693;DHT22;41590;53.366;5.212;2022-09-09T01:20:47;15.30;99.90
55693;DHT22;41590;53.366;5.212;2022-09-09T01:26:42;15.20;99.90
55693;DHT22;41590;53.366;5.212;2022-09-09T01:29:11;15.20;99.90
55693;DHT22;41590;53.366;5.212;2022-09-09T01:34:12;15.30;99.90
55693;DHT22;41590;53.366;5.212;2022-09-09T01:39:31;15.50;99.90
55693;DHT22;41590;53.366;5.212;2022-09-09T01:41:57;15.50;99.90
55693;DHT22;41590;53.366;5.212;2022-09-09T01:44:24;15.40;99.90
55693;DHT22;41590;53.366;5.212;2022-09-09T01:46:51;15.50;99.90
55693;DHT22;41590;53.366;5.212;2022-09-09T01:49:17;15.50;99.90
55693;DHT22;41590;53.366;5.212;2022-09-09T01:51:53;15.50;99.90
55693;DHT22;41590;53.366;5.212;2022-09-09T01:54:25;15.60;99.90
55693;DHT22;41590;53.366;5.212;2022-09-09T01:57:25;15.60;99.90
55693;DHT22;41590;53.366;5.212;2022-09-09T02:02:32;15.70;99.90
55693;DHT22;41590;53.366;5.212;2022-09-09T02:07:46;15.90;99.90
55693;DHT22;41590;53.366;5.212;2022-09-09T02:10:21;15.90;99.90
55693;DHT22;41590;53.366;5.212;2022-09-09T02:12:55;16.00;99.90
55693;DHT22;41590;53.366;5.212;2022-09-09T02:15:30;16.10;99.90
55693;DHT22;41590;53.366;5.212;2022-09-09T02:18:07;16.10;99.90
55693;DHT22;41590;53.366;5.212;2022-09-09T02:20:36;16.10;99.90
55693;DHT22;41590;53.366;5.212;2022-09-09T02:23:04;16.10;99.90
55693;DHT22;41590;53.366;5.212;2022-09-09T02:25:36;16.10;99.90
55693;DHT22;41590;53.366;5.212;2022-09-09T02:28:04;16.10;99.90
55693;DHT22;41590;53.366;5.212;2022-09-09T02:30:34;16.10;99.90
55693;DHT22;41590;53.366;5.212;2022-09-09T02:33:02;16.10;99.90
55693;DHT22;41590;53.366;5.212;2022-09-09T02:35:33;16.10;99.90
55693;DHT22;41590;53.366;5.212;2022-09-09T02:38:07;16.00;99.90
55693;DHT22;41590;53.366;5.212;2022-09-09T02:40:35;16.00;99.90
55693;DHT22;41590;53.366;5.212;2022-09-09T02:43:11;16.00;99.90
55693;DHT22;41590;53.366;5.212;2022-09-09T02:45:42;15.90;99.90
55693;DHT22;41590;53.366;5.212;2022-09-09T02:48:19;15.90;99.90
55693;DHT22;41590;53.366;5.212;2022-09-09T02:51:28;15.80;99.90
55693;DHT22;41590;53.366;5.212;2022-09-09T02:54:10;15.70;99.90
55693;DHT22;41590;53.366;5.212;2022-09-09T02:56:42;15.70;99.90
55693;DHT22;41590;53.366;5.212;2022-09-09T02:59:10;15.60;99.90
55693;DHT22;41590;53.366;5.212;2022-09-09T03:01:38;15.60;99.90
55693;DHT22;41590;53.366;5.212;2022-09-09T03:04:05;15.60;99.90
55693;DHT22;41590;53.366;5.212;2022-09-09T03:06:31;15.50;99.90
55693;DHT22;41590;53.366;5.212;2022-09-09T03:08:57;15.60;99.90
55693;DHT22;41590;53.366;5.212;2022-09-09T03:11:29;15.50;99.90
55693;DHT22;41590;53.366;5.212;2022-09-09T03:13:54;15.50;99.90
55693;DHT22;41590;53.366;5.212;2022-09-09T03:16:22;15.60;99.90
55693;DHT22;41590;53.366;5.212;2022-09-09T03:18:48;15.60;99.90
55693;DHT22;41590;53.366;5.212;2022-09-09T03:21:14;15.70;99.90
55693;DHT22;41590;53.366;5.212;2022-09-09T03:23:40;15.70;99.90
55693;DHT22;41590;53.366;5.212;2022-09-09T03:26:08;15.70;99.90
55693;DHT22;41590;53.366;5.212;2022-09-09T03:28:34;15.70;99.90
55693;DHT22;41590;53.366;5.212;2022-09-09T03:31:01;15.70;99.90
55693;DHT22;41590;53.366;5.212;2022-09-09T03:33:27;15.60;99.90
55693;DHT22;41590;53.366;5.212;2022-09-09T03:35:53;15.60;99.90
55693;DHT22;41590;53.366;5.212;2022-09-09T03:38:24;15.50;99.90
55693;DHT22;41590;53.366;5.212;2022-09-09T03:40:55;15.50;99.90
55693;DHT22;41590;53.366;5.212;2022-09-09T03:43:30;15.40;99.90
55693;DHT22;41590;53.366;5.212;2022-09-09T03:45:57;15.40;99.90
55693;DHT22;41590;53.366;5.212;2022-09-09T03:48:23;15.40;99.90
55693;DHT22;41590;53.366;5.212;2022-09-09T03:50:56;15.40;99.90
55693;DHT22;41590;53.366;5.212;2022-09-09T03:53:24;15.40;99.90
55693;DHT22;41590;53.366;5.212;2022-09-09T03:55:53;15.40;99.90
55693;DHT22;41590;53.366;5.212;2022-09-09T03:58:22;15.40;99.90
55693;DHT22;41590;53.366;5.212;2022-09-09T04:03:22;15.50;99.90
55693;DHT22;41590;53.366;5.212;2022-09-09T04:05:53;15.50;99.90
55693;DHT22;41590;53.366;5.212;2022-09-09T04:08:20;15.50;99.90
55693;DHT22;41590;53.366;5.212;2022-09-09T04:10:48;15.50;99.90
55693;DHT22;41590;53.366;5.212;2022-09-09T04:13:17;15.50;99.90
55693;DHT22;41590;53.366;5.212;2022-09-09T04:16:04;15.50;99.90
55693;DHT22;41590;53.366;5.212;2022-09-09T04:18:31;15.50;99.90
55693;DHT22;41590;53.366;5.212;2022-09-09T04:20:57;15.50;99.90
55693;DHT22;41590;53.366;5.212;2022-09-09T04:23:24;15.50;99.90
55693;DHT22;41590;53.366;5.212;2022-09-09T04:25:52;15.50;99.90
55693;DHT22;41590;53.366;5.212;2022-09-09T04:28:22;15.50;99.90
55693;DHT22;41590;53.366;5.212;2022-09-09T04:30:48;15.50;99.90
55693;DHT22;41590;53.366;5.212;2022-09-09T04:33:15;15.40;99.90
55693;DHT22;41590;53.366;5.212;2022-09-09T04:35:49;15.50;99.90
55693;DHT22;41590;53.366;5.212;2022-09-09T04:38:17;15.40;99.90
55693;DHT22;41590;53.366;5.212;2022-09-09T04:40:56;15.40;99.90
55693;DHT22;41590;53.366;5.212;2022-09-09T04:43:23;15.40;99.90
55693;DHT22;41590;53.366;5.212;2022-09-09T04:45:51;15.40;99.90
55693;DHT22;41590;53.366;5.212;2022-09-09T04:48:19;15.50;99.90
55693;DHT22;41590;53.366;5.212;2022-09-09T04:50:57;15.40;99.90
55693;DHT22;41590;53.366;5.212;2022-09-09T04:53:23;15.40;99.90
55693;DHT22;41590;53.366;5.212;2022-09-09T04:55:50;15.50;99.90
55693;DHT22;41590;53.366;5.212;2022-09-09T04:58:16;15.50;99.90
55693;DHT22;41590;53.366;5.212;2022-09-09T05:00:41;15.50;99.90
55693;DHT22;41590;53.366;5.212;2022-09-09T05:03:10;15.50;99.90
55693;DHT22;41590;53.366;5.212;2022-09-09T05:05:37;15.60;99.90
55693;DHT22;41590;53.366;5.212;2022-09-09T05:08:08;15.60;99.90
55693;DHT22;41590;53.366;5.212;2022-09-09T05:10:38;15.60;99.90
55693;DHT22;41590;53.366;5.212;2022-09-09T05:13:07;15.70;99.90
55693;DHT22;41590;53.366;5.212;2022-09-09T05:15:36;15.70;99.90
55693;DHT22;41590;53.366;5.212;2022-09-09T05:18:04;15.70;99.90
55693;DHT22;41590;53.366;5.212;2022-09-09T05:20:34;15.70;99.90
55693;DHT22;41590;53.366;5.212;2022-09-09T05:23:01;15.80;99.90
55693;DHT22;41590;53.366;5.212;2022-09-09T05:25:28;15.80;99.90
55693;DHT22;41590;53.366;5.212;2022-09-09T05:27:55;15.80;99.90
55693;DHT22;41590;53.366;5.212;2022-09-09T05:30:23;15.90;99.90
55693;DHT22;41590;53.366;5.212;2022-09-09T05:32:56;15.90;99.90
55693;DHT22;41590;53.366;5.212;2022-09-09T05:35:26;15.90;99.90
55693;DHT22;41590;53.366;5.212;2022-09-09T05:37:52;16.00;99.90
55693;DHT22;41590;53.366;5.212;2022-09-09T05:40:20;16.00;99.90
55693;DHT22;41590;53.366;5.212;2022-09-09T05:42:52;16.00;99.90
55693;DHT22;41590;53.366;5.212;2022-09-09T05:45:38;16.10;99.90
55693;DHT22;41590;53.366;5.212;2022-09-09T05:48:21;16.10;99.90
55693;DHT22;41590;53.366;5.212;2022-09-09T05:50:53;16.10;99.90
55693;DHT22;41590;53.366;5.212;2022-09-09T05:57:01;16.20;99.90
55693;DHT22;41590;53.366;5.212;2022-09-09T05:59:28;16.20;99.90
55693;DHT22;41590;53.366;5.212;2022-09-09T06:01:57;16.30;99.90
55693;DHT22;41590;53.366;5.212;2022-09-09T06:04:25;16.40;99.90
55693;DHT22;41590;53.366;5.212;2022-09-09T06:06:51;16.40;99.90
55693;DHT22;41590;53.366;5.212;2022-09-09T06:09:17;16.50;99.90
55693;DHT22;41590;53.366;5.212;2022-09-09T06:11:44;16.50;99.90
55693;DHT22;41590;53.366;5.212;2022-09-09T06:14:11;16.60;99.90
55693;DHT22;41590;53.366;5.212;2022-09-09T06:16:36;16.60;99.90
55693;DHT22;41590;53.366;5.212;2022-09-09T06:19:04;16.70;99.90
55693;DHT22;41590;53.366;5.212;2022-09-09T06:21:34;16.80;99.90
55693;DHT22;41590;53.366;5.212;2022-09-09T06:24:03;16.80;99.90
55693;DHT22;41590;53.366;5.212;2022-09-09T06:26:38;16.80;99.90
55693;DHT22;41590;53.366;5.212;2022-09-09T06:29:06;16.70;99.90
55693;DHT22;41590;53.366;5.212;2022-09-09T06:31:34;16.70;99.90
55693;DHT22;41590;53.366;5.212;2022-09-09T06:34:15;16.70;99.90
55693;DHT22;41590;53.366;5.212;2022-09-09T06:36:42;16.80;99.90
55693;DHT22;41590;53.366;5.212;2022-09-09T06:39:08;16.60;99.90
55693;DHT22;41590;53.366;5.212;2022-09-09T06:41:36;16.50;99.90
55693;DHT22;41590;53.366;5.212;2022-09-09T06:44:04;16.50;99.90
55693;DHT22;41590;53.366;5.212;2022-09-09T06:46:31;16.40;99.90
55693;DHT22;41590;53.366;5.212;2022-09-09T06:48:59;16.40;99.90
55693;DHT22;41590;53.366;5.212;2022-09-09T06:51:35;16.40;99.90
55693;DHT22;41590;53.366;5.212;2022-09-09T06:54:05;16.40;99.90
55693;DHT22;41590;53.366;5.212;2022-09-09T06:56:39;16.40;99.90
55693;DHT22;41590;53.366;5.212;2022-09-09T06:59:10;16.40;99.90
55693;DHT22;41590;53.366;5.212;2022-09-09T07:01:38;16.40;99.90
55693;DHT22;41590;53.366;5.212;2022-09-09T07:04:09;16.30;99.90
55693;DHT22;41590;53.366;5.212;2022-09-09T07:06:44;16.40;99.90
55693;DHT22;41590;53.366;5.212;2022-09-09T07:09:14;16.30;99.90
55693;DHT22;41590;53.366;5.212;2022-09-09T07:11:49;16.30;99.90
55693;DHT22;41590;53.366;5.212;2022-09-09T07:14:20;16.30;99.90
55693;DHT22;41590;53.366;5.212;2022-09-09T07:16:47;16.30;99.90
55693;DHT22;41590;53.366;5.212;2022-09-09T07:19:17;16.30;99.90
55693;DHT22;41590;53.366;5.212;2022-09-09T07:21:54;16.30;99.90
55693;DHT22;41590;53.366;5.212;2022-09-09T07:24:20;16.30;99.90
55693;DHT22;41590;53.366;5.212;2022-09-09T07:27:01;16.20;99.90
55693;DHT22;41590;53.366;5.212;2022-09-09T07:29:28;16.20;99.90
55693;DHT22;41590;53.366;5.212;2022-09-09T07:31:56;16.20;99.90
55693;DHT22;41590;53.366;5.212;2022-09-09T07:34:30;16.20;99.90
55693;DHT22;41590;53.366;5.212;2022-09-09T07:36:56;16.20;99.90
55693;DHT22;41590;53.366;5.212;2022-09-09T07:39:27;16.30;99.90
55693;DHT22;41590;53.366;5.212;2022-09-09T07:41:52;16.30;99.90
55693;DHT22;41590;53.366;5.212;2022-09-09T07:44:33;16.30;99.90
55693;DHT22;41590;53.366;5.212;2022-09-09T07:47:03;16.40;99.90
55693;DHT22;41590;53.366;5.212;2022-09-09T07:49:30;16.50;99.90
55693;DHT22;41590;53.366;5.212;2022-09-09T07:52:11;16.50;99.90
55693;DHT22;41590;53.366;5.212;2022-09-09T07:54:37;16.60;99.90
55693;DHT22;41590;53.366;5.212;2022-09-09T07:57:04;16.70;99.90
55693;DHT22;41590;53.366;5.212;2022-09-09T07:59:37;16.80;99.90
55693;DHT22;41590;53.366;5.212;2022-09-09T08:02:08;16.80;99.90
55693;DHT22;41590;53.366;5.212;2022-09-09T08:04:55;16.80;99.90
55693;DHT22;41590;53.366;5.212;2022-09-09T08:07:51;17.00;99.90
55693;DHT22;41590;53.366;5.212;2022-09-09T08:10:34;17.10;99.90
55693;DHT22;41590;53.366;5.212;2022-09-09T08:13:14;17.10;99.90
55693;DHT22;41590;53.366;5.212;2022-09-09T08:16:14;17.30;99.90
55693;DHT22;41590;53.366;5.212;2022-09-09T08:18:42;17.40;99.90
55693;DHT22;41590;53.366;5.212;2022-09-09T08:21:22;17.40;99.90
55693;DHT22;41590;53.366;5.212;2022-09-09T08:24:02;17.50;99.90
55693;DHT22;41590;53.366;5.212;2022-09-09T08:29:33;17.80;99.90
55693;DHT22;41590;53.366;5.212;2022-09-09T08:32:21;17.80;99.90
55693;DHT22;41590;53.366;5.212;2022-09-09T08:35:19;17.70;99.90
55693;DHT22;41590;53.366;5.212;2022-09-09T08:38:00;17.70;99.90
55693;DHT22;41590;53.366;5.212;2022-09-09T08:40:36;17.70;99.90
55693;DHT22;41590;53.366;5.212;2022-09-09T08:43:16;17.70;99.90
55693;DHT22;41590;53.366;5.212;2022-09-09T08:46:00;17.70;99.90
55693;DHT22;41590;53.366;5.212;2022-09-09T08:51:25;18.00;99.90
55693;DHT22;41590;53.366;5.212;2022-09-09T08:53:54;18.10;99.90
55693;DHT22;41590;53.366;5.212;2022-09-09T08:56:24;18.20;99.90
55693;DHT22;41590;53.366;5.212;2022-09-09T09:07:55;18.60;99.90
55693;DHT22;41590;53.366;5.212;2022-09-09T09:13:15;19.00;99.90
55693;DHT22;41590;53.366;5.212;2022-09-09T09:15:49;19.20;99.90
55693;DHT22;41590;53.366;5.212;2022-09-09T09:18:17;19.20;99.90
55693;DHT22;41590;53.366;5.212;2022-09-09T09:21:12;19.10;99.90
55693;DHT22;41590;53.366;5.212;2022-09-09T09:24:16;19.10;99.90
55693;DHT22;41590;53.366;5.212;2022-09-09T09:26:45;19.10;99.90
55693;DHT22;41590;53.366;5.212;2022-09-09T09:29:14;19.40;99.90
55693;DHT22;41590;53.366;5.212;2022-09-09T09:31:53;19.50;99.90
55693;DHT22;41590;53.366;5.212;2022-09-09T09:34:34;19.40;99.90
55693;DHT22;41590;53.366;5.212;2022-09-09T09:37:02;19.50;99.90
55693;DHT22;41590;53.366;5.212;2022-09-09T09:39:38;19.50;99.90
55693;DHT22;41590;53.366;5.212;2022-09-09T09:42:29;19.50;99.90
55693;DHT22;41590;53.366;5.212;2022-09-09T09:45:32;19.70;99.90
55693;DHT22;41590;53.366;5.212;2022-09-09T09:47:59;19.80;99.90
55693;DHT22;41590;53.366;5.212;2022-09-09T09:50:50;19.90;99.90
55693;DHT22;41590;53.366;5.212;2022-09-09T09:53:43;20.00;99.90
55693;DHT22;41590;53.366;5.212;2022-09-09T09:56:11;20.00;99.90
55693;DHT22;41590;53.366;5.212;2022-09-09T10:01:51;20.20;99.90
55693;DHT22;41590;53.366;5.212;2022-09-09T10:04:20;20.20;99.90
55693;DHT22;41590;53.366;5.212;2022-09-09T10:06:49;20.20;99.90
55693;DHT22;41590;53.366;5.212;2022-09-09T10:09:26;20.20;99.90
55693;DHT22;41590;53.366;5.212;2022-09-09T10:15:13;20.30;99.90
55693;DHT22;41590;53.366;5.212;2022-09-09T10:29:26;20.70;99.90
55693;DHT22;41590;53.366;5.212;2022-09-09T10:40:27;21.10;99.90
55693;DHT22;41590;53.366;5.212;2022-09-09T10:51:54;20.30;99.90
55693;DHT22;41590;53.366;5.212;2022-09-09T10:54:41;20.30;99.90
55693;DHT22;41590;53.366;5.212;2022-09-09T11:00:24;20.50;99.90
55693;DHT22;41590;53.366;5.212;2022-09-09T11:03:00;20.60;99.90
55693;DHT22;41590;53.366;5.212;2022-09-09T11:05:57;20.50;99.90
55693;DHT22;41590;53.366;5.212;2022-09-09T11:08:58;20.00;99.90
55693;DHT22;41590;53.366;5.212;2022-09-09T11:11:50;19.80;99.90
55693;DHT22;41590;53.366;5.212;2022-09-09T11:14:48;19.50;99.90
55693;DHT22;41590;53.366;5.212;2022-09-09T11:17:35;19.40;99.90
55693;DHT22;41590;53.366;5.212;2022-09-09T11:20:05;19.30;99.90
55693;DHT22;41590;53.366;5.212;2022-09-09T11:22:39;19.20;99.90
55693;DHT22;41590;53.366;5.212;2022-09-09T11:25:15;19.10;99.90
55693;DHT22;41590;53.366;5.212;2022-09-09T11:33:33;19.60;99.90
55693;DHT22;41590;53.366;5.212;2022-09-09T11:39:33;20.40;99.90
55693;DHT22;41590;53.366;5.212;2022-09-09T11:42:21;20.70;99.90
55693;DHT22;41590;53.366;5.212;2022-09-09T11:44:53;20.90;99.90
55693;DHT22;41590;53.366;5.212;2022-09-09T11:47:29;21.00;99.90
55693;DHT22;41590;53.366;5.212;2022-09-09T11:52:43;21.00;99.90
55693;DHT22;41590;53.366;5.212;2022-09-09T11:55:34;20.90;99.90
55693;DHT22;41590;53.366;5.212;2022-09-09T12:03:55;20.40;99.90
55693;DHT22;41590;53.366;5.212;2022-09-09T12:06:41;20.40;99.90
55693;DHT22;41590;53.366;5.212;2022-09-09T12:14:56;20.30;99.90
55693;DHT22;41590;53.366;5.212;2022-09-09T12:17:54;20.00;99.90
55693;DHT22;41590;53.366;5.212;2022-09-09T12:20:36;19.80;99.90
55693;DHT22;41590;53.366;5.212;2022-09-09T12:26:36;19.60;99.90
55693;DHT22;41590;53.366;5.212;2022-09-09T12:32:13;19.70;99.90
55693;DHT22;41590;53.366;5.212;2022-09-09T12:34:54;19.70;99.90
55693;DHT22;41590;53.366;5.212;2022-09-09T12:40:30;19.80;99.90
55693;DHT22;41590;53.366;5.212;2022-09-09T12:43:29;19.80;99.90
55693;DHT22;41590;53.366;5.212;2022-09-09T12:46:03;19.80;99.90
55693;DHT22;41590;53.366;5.212;2022-09-09T12:48:52;19.90;99.90
55693;DHT22;41590;53.366;5.212;2022-09-09T12:51:29;19.90;99.90
55693;DHT22;41590;53.366;5.212;2022-09-09T12:54:03;19.70;99.90
55693;DHT22;41590;53.366;5.212;2022-09-09T12:56:33;19.80;99.90
55693;DHT22;41590;53.366;5.212;2022-09-09T12:58:59;19.80;99.90
55693;DHT22;41590;53.366;5.212;2022-09-09T13:01:28;19.80;99.90
55693;DHT22;41590;53.366;5.212;2022-09-09T13:03:55;19.90;99.90
55693;DHT22;41590;53.366;5.212;2022-09-09T13:06:27;20.00;99.90
55693;DHT22;41590;53.366;5.212;2022-09-09T13:08:58;20.10;99.90
55693;DHT22;41590;53.366;5.212;2022-09-09T13:11:42;20.20;99.90
55693;DHT22;41590;53.366;5.212;2022-09-09T13:14:57;20.30;99.90
55693;DHT22;41590;53.366;5.212;2022-09-09T13:17:32;20.30;99.90
55693;DHT22;41590;53.366;5.212;2022-09-09T13:20:19;20.20;99.90
55693;DHT22;41590;53.366;5.212;2022-09-09T13:22:50;20.30;99.90
55693;DHT22;41590;53.366;5.212;2022-09-09T13:31:20;20.40;99.90
55693;DHT22;41590;53.366;5.212;2022-09-09T13:33:47;20.50;99.90
55693;DHT22;41590;53.366;5.212;2022-09-09T13:36:14;20.40;99.90
55693;DHT22;41590;53.366;5.212;2022-09-09T13:45:25;20.60;99.90
55693;DHT22;41590;53.366;5.212;2022-09-09T13:48:17;20.60;99.90
55693;DHT22;41590;53.366;5.212;2022-09-09T13:58:05;20.10;99.90
55693;DHT22;41590;53.366;5.212;2022-09-09T14:00:59;20.00;99.90
55693;DHT22;41590;53.366;5.212;2022-09-09T14:03:44;20.20;99.90
55693;DHT22;41590;53.366;5.212;2022-09-09T14:06:12;20.50;99.90
55693;DHT22;41590;53.366;5.212;2022-09-09T14:09:16;20.70;99.90
55693;DHT22;41590;53.366;5.212;2022-09-09T14:11:56;20.90;99.90
55693;DHT22;41590;53.366;5.212;2022-09-09T14:14:28;21.00;99.90
55693;DHT22;41590;53.366;5.212;2022-09-09T14:16:54;21.10;99.90
55693;DHT22;41590;53.366;5.212;2022-09-09T14:19:24;21.10;99.90
55693;DHT22;41590;53.366;5.212;2022-09-09T14:21:58;21.20;99.90
55693;DHT22;41590;53.366;5.212;2022-09-09T14:24:30;21.40;99.90
55693;DHT22;41590;53.366;5.212;2022-09-09T14:27:08;21.50;99.90
55693;DHT22;41590;53.366;5.212;2022-09-09T14:29:37;21.50;99.90
55693;DHT22;41590;53.366;5.212;2022-09-09T14:32:13;21.60;99.90
55693;DHT22;41590;53.366;5.212;2022-09-09T14:34:39;21.60;99.90
55693;DHT22;41590;53.366;5.212;2022-09-09T14:37:09;21.40;99.90
55693;DHT22;41590;53.366;5.212;2022-09-09T14:39:34;21.30;99.90
55693;DHT22;41590;53.366;5.212;2022-09-09T14:42:01;21.30;99.90
55693;DHT22;41590;53.366;5.212;2022-09-09T14:44:29;21.50;99.90
55693;DHT22;41590;53.366;5.212;2022-09-09T14:46:55;21.40;99.90
55693;DHT22;41590;53.366;5.212;2022-09-09T14:49:29;21.20;99.90
55693;DHT22;41590;53.366;5.212;2022-09-09T14:51:56;21.10;99.90
55693;DHT22;41590;53.366;5.212;2022-09-09T14:54:24;20.80;99.90
55693;DHT22;41590;53.366;5.212;2022-09-09T14:56:50;20.60;99.90
55693;DHT22;41590;53.366;5.212;2022-09-09T14:59:21;20.40;99.90
55693;DHT22;41590;53.366;5.212;2022-09-09T15:01:49;20.30;99.90
55693;DHT22;41590;53.366;5.212;2022-09-09T15:04:22;20.10;99.90
55693;DHT22;41590;53.366;5.212;2022-09-09T15:06:48;19.90;99.90
55693;DHT22;41590;53.366;5.212;2022-09-09T15:09:29;19.70;99.90
55693;DHT22;41590;53.366;5.212;2022-09-09T15:12:01;19.60;99.90
55693;DHT22;41590;53.366;5.212;2022-09-09T15:17:34;19.30;99.90
55693;DHT22;41590;53.366;5.212;2022-09-09T15:20:36;19.20;99.90
55693;DHT22;41590;53.366;5.212;2022-09-09T15:26:47;19.00;99.90
55693;DHT22;41590;53.366;5.212;2022-09-09T15:29:20;18.90;99.90
55693;DHT22;41590;53.366;5.212;2022-09-09T15:32:05;18.80;99.90
55693;DHT22;41590;53.366;5.212;2022-09-09T15:34:40;19.10;99.90
55693;DHT22;41590;53.366;5.212;2022-09-09T15:37:28;18.90;99.90
55693;DHT22;41590;53.366;5.212;2022-09-09T15:40:53;19.10;99.90
55693;DHT22;41590;53.366;5.212;2022-09-09T15:43:23;18.70;99.90
55693;DHT22;41590;53.366;5.212;2022-09-09T15:45:59;18.90;99.90
55693;DHT22;41590;53.366;5.212;2022-09-09T15:48:42;18.90;99.90
55693;DHT22;41590;53.366;5.212;2022-09-09T15:51:16;18.90;99.90
55693;DHT22;41590;53.366;5.212;2022-09-09T15:54:06;19.00;99.90
55693;DHT22;41590;53.366;5.212;2022-09-09T15:56:34;19.10;99.90
55693;DHT22;41590;53.366;5.212;2022-09-09T15:59:01;19.20;99.90
55693;DHT22;41590;53.366;5.212;2022-09-09T16:01:29;19.20;99.90
55693;DHT22;41590;53.366;5.212;2022-09-09T16:03:57;19.20;99.90
55693;DHT22;41590;53.366;5.212;2022-09-09T16:06:37;19.40;99.90
55693;DHT22;41590;53.366;5.212;2022-09-09T16:09:08;19.60;99.90
55693;DHT22;41590;53.366;5.212;2022-09-09T16:11:38;19.50;99.90
55693;DHT22;41590;53.366;5.212;2022-09-09T16:14:06;19.50;99.90
55693;DHT22;41590;53.366;5.212;2022-09-09T16:16:38;19.40;99.90
55693;DHT22;41590;53.366;5.212;2022-09-09T16:19:28;19.20;99.90
55693;DHT22;41590;53.366;5.212;2022-09-09T16:21:55;19.10;99.90
55693;DHT22;41590;53.366;5.212;2022-09-09T16:24:38;19.10;99.90
55693;DHT22;41590;53.366;5.212;2022-09-09T16:27:10;19.10;99.90
55693;DHT22;41590;53.366;5.212;2022-09-09T16:29:36;19.00;99.90
55693;DHT22;41590;53.366;5.212;2022-09-09T16:32:13;18.90;99.90
55693;DHT22;41590;53.366;5.212;2022-09-09T16:34:52;18.90;99.90
55693;DHT22;41590;53.366;5.212;2022-09-09T16:40:13;19.00;99.90
55693;DHT22;41590;53.366;5.212;2022-09-09T16:42:54;18.90;99.90
55693;DHT22;41590;53.366;5.212;2022-09-09T16:45:22;18.80;99.90
55693;DHT22;41590;53.366;5.212;2022-09-09T16:48:31;18.80;99.90
55693;DHT22;41590;53.366;5.212;2022-09-09T16:51:29;18.80;99.90
55693;DHT22;41590;53.366;5.212;2022-09-09T16:54:01;18.60;99.90
55693;DHT22;41590;53.366;5.212;2022-09-09T16:56:48;18.60;99.90
55693;DHT22;41590;53.366;5.212;2022-09-09T16:59:23;18.10;99.90
55693;DHT22;41590;53.366;5.212;2022-09-09T17:01:51;18.50;99.90
55693;DHT22;41590;53.366;5.212;2022-09-09T17:04:26;18.50;99.90
55693;DHT22;41590;53.366;5.212;2022-09-09T17:06:55;18.40;99.90
55693;DHT22;41590;53.366;5.212;2022-09-09T17:09:30;18.30;99.90
55693;DHT22;41590;53.366;5.212;2022-09-09T17:11:57;18.30;99.90
55693;DHT22;41590;53.366;5.212;2022-09-09T17:14:24;18.20;99.90
55693;DHT22;41590;53.366;5.212;2022-09-09T17:16:50;18.10;99.90
55693;DHT22;41590;53.366;5.212;2022-09-09T17:19:23;18.10;99.90
55693;DHT22;41590;53.366;5.212;2022-09-09T17:21:54;18.00;99.90
55693;DHT22;41590;53.366;5.212;2022-09-09T17:24:22;18.00;99.90
55693;DHT22;41590;53.366;5.212;2022-09-09T17:26:49;17.90;99.90
55693;DHT22;41590;53.366;5.212;2022-09-09T17:29:24;17.90;99.90
55693;DHT22;41590;53.366;5.212;2022-09-09T17:31:52;17.90;99.90
55693;DHT22;41590;53.366;5.212;2022-09-09T17:34:22;17.90;99.90
55693;DHT22;41590;53.366;5.212;2022-09-09T17:37:04;17.90;99.90
55693;DHT22;41590;53.366;5.212;2022-09-09T17:40:00;17.90;99.90
55693;DHT22;41590;53.366;5.212;2022-09-09T17:42:39;17.90;99.90
55693;DHT22;41590;53.366;5.212;2022-09-09T17:45:08;17.90;99.90
55693;DHT22;41590;53.366;5.212;2022-09-09T17:47:36;17.80;99.90
55693;DHT22;41590;53.366;5.212;2022-09-09T17:50:02;17.80;99.90
55693;DHT22;41590;53.366;5.212;2022-09-09T17:52:29;17.80;99.90
55693;DHT22;41590;53.366;5.212;2022-09-09T17:58:19;17.70;99.90
55693;DHT22;41590;53.366;5.212;2022-09-09T18:00:51;17.60;99.90
55693;DHT22;41590;53.366;5.212;2022-09-09T18:03:21;17.60;99.90
55693;DHT22;41590;53.366;5.212;2022-09-09T18:06:02;17.60;99.90
55693;DHT22;41590;53.366;5.212;2022-09-09T18:08:30;17.60;99.90
55693;DHT22;41590;53.366;5.212;2022-09-09T18:11:00;17.60;99.90
55693;DHT22;41590;53.366;5.212;2022-09-09T18:13:27;17.60;99.90
55693;DHT22;41590;53.366;5.212;2022-09-09T18:15:55;17.60;99.90
55693;DHT22;41590;53.366;5.212;2022-09-09T18:18:25;17.40;99.90
55693;DHT22;41590;53.366;5.212;2022-09-09T18:21:03;17.30;99.90
55693;DHT22;41590;53.366;5.212;2022-09-09T18:23:41;17.30;99.90
55693;DHT22;41590;53.366;5.212;2022-09-09T18:26:14;17.20;99.90
55693;DHT22;41590;53.366;5.212;2022-09-09T18:28:46;17.00;99.90
55693;DHT22;41590;53.366;5.212;2022-09-09T18:31:14;17.00;99.90
55693;DHT22;41590;53.366;5.212;2022-09-09T18:33:42;17.00;99.90
55693;DHT22;41590;53.366;5.212;2022-09-09T18:36:11;16.90;99.90
55693;DHT22;41590;53.366;5.212;2022-09-09T18:38:37;16.90;99.90
55693;DHT22;41590;53.366;5.212;2022-09-09T18:41:21;16.90;99.90
55693;DHT22;41590;53.366;5.212;2022-09-09T18:43:56;16.90;99.90
55693;DHT22;41590;53.366;5.212;2022-09-09T18:46:29;16.90;99.90
55693;DHT22;41590;53.366;5.212;2022-09-09T18:48:55;16.90;99.90
55693;DHT22;41590;53.366;5.212;2022-09-09T18:51:24;17.00;99.90
55693;DHT22;41590;53.366;5.212;2022-09-09T18:53:55;16.90;99.90
55693;DHT22;41590;53.366;5.212;2022-09-09T18:56:23;17.00;99.90